x

9440910 - Toke Point, Wa (tokw1) Weather Station

6:30 - Mon 16th Jan 2017 All times are PST. -8 hours from GMT.

  • Wind
    14mph, 15mph gusts
  • Sea Temp 43°f
  • Ar Temp 38°f
  • Sea Pressure 1021.2mb
  • 9440910 - Toke Point, Wa
  • 9440910 - Toke Point, Wa

More Historic Weather Station data

Upgrade to MSW Pro to gain access to the past 30 days of data for over 8000 Wavebouys and Weather Stations around the globe.

Join Pro

Comparision Forecast

View Surf forecast
   
Seg 01/16 6:30 14 15 mph 1021.2mb 43f 38f
6:24 11 14 mph 1021.6mb 44f 38f
6:18 14 15 mph - - -
6:12 13 16 mph 1021.7mb 45f 38f
6:06 15 17 mph 1021.8mb 43f 38f
6:00 14 15 mph 1021.9mb 44f 37f
5:54 13 15 mph 1022.1mb 43f 37f
5:48 15 16 mph 1022.1mb 44f 38f
5:42 11 15 mph 1022.1mb 44f 38f
5:36 15 16 mph 1022.1mb 44f 37f
5:30 14 16 mph 1022.2mb 44f 37f
5:24 14 15 mph 1022.2mb 45f 37f
5:18 13 14 mph 1022.3mb - -
5:12 13 14 mph 1022.4mb 45f 38f
5:06 11 14 mph 1022.5mb 46f 38f
5:00 11 13 mph 1022.6mb 46f 38f
4:48 10 11 mph 1023mb 46f 37f
4:42 10 11 mph 1023.1mb 45f 37f
4:36 9 13 mph 1023.2mb 45f 37f
4:30 11 13 mph 1023.2mb 46f 37f
4:24 10 11 mph 1023.3mb 46f 37f
4:18 10 13 mph 1023.4mb - -
4:12 10 13 mph 1023.4mb 45f 37f
4:06 11 13 mph 1023.3mb 45f 37f
4:00 11 13 mph 1023.3mb 46f 37f
3:54 10 11 mph 1023.4mb 46f 37f
3:48 9 10 mph 1023.4mb 46f 38f
3:42 8 9 mph 1023.7mb 46f 38f
3:36 8 9 mph 1023.7mb 45f 38f
3:30 8 10 mph 1023.7mb 45f 38f
3:24 9 10 mph 1023.5mb 45f 38f
3:18 9 11 mph 1023.5mb 45f 38f
3:12 9 11 mph 1023.6mb 45f 38f
3:06 10 13 mph 1023.5mb 45f 38f
3:00 11 13 mph 1023.3mb 45f 38f
2:54 10 11 mph 1023.3mb 45f 38f
2:48 9 10 mph 1023.5mb 45f -
2:42 8 9 mph 1023.7mb 45f 38f
2:36 8
mph
1023.8mb 45f 38f
2:30 7 10 mph 1023.9mb 45f 38f
2:24 9 11 mph 1023.7mb 45f 38f
2:18 10 11 mph 1023.6mb - -
2:12 10 11 mph 1023.6mb 44f 38f
2:06 11 14 mph 1023.6mb 44f 38f
2:00 11 14 mph 1023.5mb 44f 38f
1:54 8 11 mph 1023.7mb 44f 38f
1:48 10 11 mph 1023.6mb 44f 39f
1:42 8 9 mph 1023.7mb 44f 39f
1:36 8 10 mph 1023.9mb 43f 39f
1:30 9 13 mph 1023.6mb 43f 38f
1:24 11 13 mph 1023.3mb 43f 39f
1:18 6
mph
- - -
1:12 6 8 mph 1023.6mb 43f 41f
1:06 7 9 mph 1023.6mb 43f 41f
1:00 9
mph
1023.6mb 43f 41f
12:54 9 10 mph 1023.7mb 42f 40f
12:48 6 7 mph 1023.9mb 42f 39f
12:42 6 9 mph 1024mb 42f 38f
12:36 6 10 mph 1024.1mb 42f 38f
12:30 10 11 mph 1024.1mb 42f 38f
12:24 9 15 mph 1023.9mb 42f 38f
12:18 14 16 mph 1023.7mb 42f 38f
12:12 15 16 mph 1023.4mb 41f 38f
12:06 14 16 mph 1023.6mb 41f 38f
12:00 15 16 mph 1023.5mb 42f 38f
Dom 01/15 11:54 15 17 mph 1023.5mb 42f 38f
11:48 14 15 mph 1023.7mb 42f 38f
11:42 11 14 mph 1024mb 41f 38f
11:36 13 14 mph 1024.1mb 41f 38f
11:30 10 13 mph 1024.3mb 41f 38f
11:24 10 13 mph 1024.4mb 41f 37f
11:18 9 15 mph 1024.3mb - -
11:12 14 16 mph 1024.2mb 41f 36f
11:06 14 16 mph 1024.1mb 41f 36f
11:00 10 11 mph 1024.3mb 41f 37f
10:54 9 13 mph 1024.4mb 41f 37f
10:48 11 13 mph 1024.3mb 41f 37f
10:42 9 11 mph 1024.3mb - -
10:36 8 9 mph 1024.5mb - -
10:30 5 7 mph 1024.9mb - -
10:24 6 7 mph 1025.1mb 42f 37f
10:18 7 9 mph 1025.1mb 42f 36f
10:12 9
mph
1025.2mb 42f 36f
10:06 6
mph
1025.1mb 42f 36f
10:00 5 6 mph 1025mb 42f 36f
9:54 6 7 mph 1024.8mb 42f 36f
9:48 3
mph
- - -
9:42 2 5 mph 1024.8mb 42f 37f
9:36 3 5 mph 1024.6mb 42f 37f
9:30 5 7 mph 1024.6mb 42f 37f
9:24 7 9 mph 1024.5mb 42f 36f
9:18 7
mph
1024.5mb 43f 37f
9:12 2 3 mph 1024.7mb 42f 37f
9:06 1 2 mph 1024.8mb 43f 37f
9:00 1 2 mph 1024.9mb 43f 37f
8:54  -  5 mph 1024.9mb 42f 37f
8:48 5 6 mph 1024.6mb 43f 37f
8:42 2 3 mph 1024.5mb 42f 37f
8:36 2 3 mph 1024.4mb 43f 37f
8:30 2 5 mph 1024.6mb 43f 37f
8:24 5 6 mph 1024.6mb 43f 37f
8:18 5 6 mph 1024.7mb 43f 37f
8:12 5 6 mph 1024.5mb 43f 37f
8:06 5 6 mph 1024.5mb 43f 38f
8:00 3 8 mph 1024.5mb 43f 38f
7:54 7 8 mph 1024.6mb 43f 39f
7:48 7 10 mph 1024.6mb 43f 40f
7:42 9 10 mph 1024.5mb 43f 40f
7:36 9 11 mph 1024.4mb 43f 40f
7:30 10 15 mph 1024.4mb 43f 40f
7:24 8 9 mph 1024.4mb 43f 40f
7:18 8 10 mph 1024.6mb 43f 40f
7:12 9 10 mph 1024.4mb 44f 40f
7:06 9 13 mph 1024.4mb 43f 40f
7:00 11 14 mph 1024.1mb 44f 40f
6:54 13 15 mph 1023.9mb 44f 40f
6:48 13 15 mph 1024mb 44f -
6:42 14 16 mph 1023.9mb 44f 41f
6:36 13 15 mph 1024.1mb 44f 40f
6:30 10 13 mph 1024mb 44f 41f
6:24 11 15 mph 1023.9mb 44f 42f
6:18 13 16 mph 1023.9mb 44f 42f
6:12 15 16 mph 1024mb 44f 42f
6:06 10 14 mph 1024.1mb 44f 42f
6:00 9 15 mph 1024.2mb 45f 42f
5:54 17 22 mph 1023.5mb 44f 42f
5:48 14 15 mph 1024.2mb 45f 41f
5:42 13 14 mph 1024.9mb 44f 41f
5:36 8 9 mph 1025.2mb 45f 41f
5:30 8 9 mph 1025.3mb 44f 42f
5:24 2 5 mph 1025.3mb 45f 42f
5:18 2 5 mph 1025.3mb 44f 41f
5:12 3 5 mph 1025.3mb 44f 41f
5:06 5 6 mph 1025.4mb 45f 40f
5:00 5 6 mph 1025.4mb 45f 41f
4:54 3 5 mph 1025.5mb 46f 41f
4:48 2 3 mph - - -
4:42  -  1 mph 1025.5mb 45f 45f
4:36 2
mph
1025.4mb 45f 45f
4:30 2 3 mph 1025.4mb 44f 45f
4:24 3 5 mph 1025.4mb 45f 45f
4:18 3 5 mph - - -
4:12 3 5 mph 1025.3mb 45f 46f
4:06 3 5 mph 1025.1mb 45f 46f
4:00 3 6 mph 1025mb 45f 46f
3:54 6
mph
1025.1mb 45f 46f
3:48 5
mph
1025mb 46f -
3:42 5 7 mph 1025mb 46f 46f
3:36 5 6 mph 1025mb 46f 46f
3:30 3 6 mph 1025mb 46f 46f
3:24 5 7 mph 1024.9mb 46f 46f
3:18 6 7 mph 1024.9mb 46f -
3:12 6 7 mph 1024.8mb 46f 45f
3:06 6
mph
1024.7mb 46f 45f
3:00 5 6 mph 1024.7mb 46f 46f
2:54 3 5 mph 1024.7mb 46f 46f
2:48 1 2 mph 1024.6mb 46f -
2:42 1 2 mph 1024.5mb 46f 48f
2:36  -  2 mph 1024.4mb 45f 48f
2:30  -  2 mph 1024.4mb 45f 48f
2:24 2 5 mph 1024.4mb 45f 45f
2:18 3 5 mph 1024.2mb 45f -
2:12 5 6 mph 1024.1mb 45f 44f
2:06 5 6 mph 1024.1mb 45f 44f
2:00 5 6 mph 1024.2mb 45f -
1:54 5
mph
1024.1mb 45f 44f
1:48 2 3 mph 1024.3mb 45f -
1:42 2
mph
1024.6mb 44f 46f
1:36  -  1 mph 1024.6mb 44f 46f
1:30  -  1 mph 1024.6mb 44f 46f
1:24 1 2 mph 1024.6mb 44f 45f
1:18  -  2 mph 1024.5mb 44f 44f
1:12 2 3 mph 1024.5mb 44f 43f
1:06 1 3 mph 1024.6mb 44f 44f
1:00 5
mph
1024.5mb 44f 43f
12:54 5 6 mph 1024.5mb 44f 43f
12:48 5 7 mph 1024.5mb - -
12:42 6 8 mph 1024.6mb 44f 42f
12:36 8 10 mph 1024.5mb 44f 42f
12:30 10 13 mph 1024.4mb 44f 42f
12:24 9 13 mph 1024.5mb 44f 41f
12:18 10 11 mph 1024.5mb - -
12:12 10 14 mph 1024.5mb 44f 40f
12:06 11 14 mph 1024.5mb 44f 40f
12:00 10
mph
1024.6mb 44f 40f
11:54 8 9 mph 1024.8mb 44f 39f
11:48 8 10 mph 1024.8mb 44f 38f
11:42 10 11 mph 1024.8mb 43f 38f
11:36 10 13 mph 1024.8mb 43f 38f
11:30 11 13 mph 1024.9mb 42f 38f
11:24 13 14 mph 1025mb 42f 38f
11:18 11 14 mph 1025.1mb 42f 38f
11:12 14 15 mph 1025.2mb 42f 37f
11:06 13 14 mph 1025.2mb 42f 37f
11:00 10 11 mph 1025.4mb 42f -
10:54 9 10 mph 1025.5mb 42f 36f
10:48 8 10 mph 1025.6mb 42f 36f
10:42 10 11 mph 1025.6mb - -
10:36 11 13 mph 1025.6mb 41f 35f
10:30 10 11 mph 1025.6mb 41f 35f
10:24 9 11 mph 1025.5mb 41f 35f
10:18 10 11 mph 1025.5mb 41f 35f
10:12 10 13 mph 1025.5mb 40f 35f
10:06 11 13 mph 1025.5mb 41f 35f
10:00 10 13 mph 1025.5mb 41f 34f
9:54 9 11 mph 1025.6mb 41f 34f
9:48 9 10 mph 1025.7mb 41f 34f
9:42 9 10 mph 1025.8mb 41f 33f
9:36 9 11 mph 1025.8mb 41f 33f
9:30 9 10 mph 1025.8mb 41f 33f
9:24 8 10 mph 1025.8mb 41f 33f
9:18 8 9 mph 1025.8mb 41f -
9:12 8 9 mph 1025.8mb 41f 33f
9:06 8 9 mph 1025.8mb 41f 33f
9:00 9 11 mph 1025.7mb 41f 33f
8:54 9 11 mph 1025.6mb 41f 33f
8:48 10 11 mph 1025.6mb 41f 33f
8:42 9 10 mph 1025.7mb 41f 34f
8:36 8 9 mph 1025.6mb 41f 34f
8:30 7 8 mph 1025.5mb 41f 34f
8:24 7 9 mph 1025.5mb 41f 34f
8:18 8 9 mph 1025.5mb 41f 35f
8:12 9 10 mph 1025.4mb 41f 34f
8:06 9 10 mph 1025.2mb 41f 34f
8:00 8 10 mph 1025.2mb 41f 33f
7:54 8 9 mph 1025.3mb 41f 33f
7:48 7 8 mph 1025.3mb 41f 33f
7:42 6 8 mph 1025.3mb 41f 33f
7:36 8 10 mph 1025.1mb 42f 33f
7:30 8 9 mph 1025mb 42f 33f
7:24 7 10 mph 1024.9mb 42f 33f
7:18 9 10 mph 1024.7mb 42f 33f
7:12 9 11 mph 1024.6mb 42f 34f
7:06 9 11 mph 1024.5mb 42f 34f
7:00 10 11 mph 1024.6mb 42f 34f
6:54 10 11 mph 1024.6mb 43f 33f
6:48 10 11 mph 1024.6mb 43f 34f
6:42 10 11 mph 1024.8mb 43f 33f
6:36 9 11 mph 1025mb 42f 34f
6:30 10 11 mph 1025.1mb 43f 33f
6:24 9 10 mph 1025.1mb 44f 34f
6:18 9 10 mph 1025mb 44f 34f
6:12 8 9 mph 1025.1mb 43f 34f
6:06 8 9 mph 1025.2mb 44f 34f
6:00 8
mph
1025.4mb 44f 34f
5:54 8 9 mph 1025.5mb 43f 34f
5:48 7 8 mph 1025.5mb 44f -
5:42 7 10 mph 1025.4mb 43f 34f
5:36 9
mph
1025.4mb 43f 34f
5:30 8 9 mph 1025.4mb 44f 35f
5:24 7 8 mph 1025.3mb 43f 35f
5:18 7 8 mph 1025.3mb 43f 34f
5:12 5 6 mph 1025.3mb 42f 33f
5:06 3 5 mph 1025.3mb 44f 34f
5:00 3 8 mph 1025.3mb 44f 34f
4:54 8 10 mph 1025.4mb 44f 35f
4:48 9 10 mph 1025.4mb - -
4:42 10 11 mph 1025.3mb 44f 35f
4:36 10 11 mph 1025.4mb 43f 35f
4:30 10 11 mph 1025.5mb 44f 35f
4:24 9 10 mph 1025.6mb 45f 35f
4:18 7 9 mph 1025.6mb 45f 35f
4:12 8 9 mph 1025.6mb 45f 35f
4:06 7 8 mph 1025.7mb 45f 35f
4:00 7 8 mph 1025.7mb 45f 35f
3:54 8 10 mph 1025.7mb 45f 35f
3:48 8 10 mph 1025.7mb 44f -
3:42 8 11 mph 1025.6mb 45f 35f
3:36 10 13 mph 1025.4mb 45f 35f
3:30 11 15 mph 1025.3mb 45f 35f
3:24 15 17 mph 1025.1mb 45f 35f
3:18 10 13 mph 1025.3mb 45f 35f
3:12 11 13 mph 1025.3mb 45f 35f
3:06 9 10 mph 1025.6mb 45f 36f
3:00 9 14 mph 1025.6mb 45f 36f
2:54 9 13 mph 1025.4mb 45f 36f
2:48 11 15 mph 1025.4mb 45f -
2:42 13 15 mph 1025.2mb 45f 36f
2:36 14 16 mph 1025.2mb 45f 36f
2:30 13 15 mph 1025mb 45f 36f
2:24 11 14 mph 1025.1mb 45f 36f
2:18 10 11 mph 1025.3mb 45f 36f
2:12 9 11 mph 1025.3mb 45f 35f
2:06 10 11 mph 1025.5mb 45f 35f
2:00 9 11 mph 1025.5mb 44f 34f
1:54 10 13 mph 1025.4mb 44f 35f
1:48 9 10 mph 1025.3mb 44f 35f
1:42 9 13 mph 1025.3mb 44f 35f
1:36 10 11 mph 1025.1mb 44f 36f
1:30 9 11 mph 1025.1mb 44f 36f
1:24 9 10 mph 1024.9mb 44f 36f
1:18 9 11 mph 1025mb - -
1:12 9 11 mph 1025.1mb 44f 36f
1:06 9 11 mph 1025.1mb 43f 35f
1:00 9 10 mph 1025.2mb 43f 36f
12:54 9 10 mph 1025.2mb 43f 36f
12:48 9 11 mph 1025.2mb 43f 36f
12:42 9 11 mph 1025.1mb 43f 35f
12:36 10
mph
1025mb 43f 35f
12:30 9 10 mph 1025mb 43f 34f
12:24 9 10 mph 1025mb 43f 34f
12:18 8 9 mph 1025mb 42f 35f
12:12 8 9 mph 1024.9mb 42f 34f
12:06 8 9 mph 1024.9mb 42f 34f
12:00 8 10 mph 1024.8mb 42f 35f
Sáb 01/14 11:54 9 10 mph 1024.7mb 42f 34f
11:48 9 10 mph 1024.6mb 42f -
11:42 8 10 mph 1024.7mb 41f 34f
11:36 8 9 mph 1024.7mb 41f 34f
11:30 8 9 mph 1024.7mb 41f 34f
11:24 8 9 mph 1024.7mb 40f 34f
11:18 8 9 mph 1024.7mb 40f 34f
11:12 8 9 mph 1024.7mb 40f 35f
11:06 7 8 mph 1024.9mb 40f 35f
11:00 6 8 mph 1024.8mb 40f 36f
10:54 7 8 mph 1024.6mb 40f 36f
10:48 6 8 mph 1024.5mb 40f -
10:42 7 8 mph 1024.4mb 39f -
10:36 6 8 mph 1024.5mb 39f -
10:30 7 8 mph 1024.4mb 39f 35f
10:24 7 8 mph 1024.4mb 39f 35f
10:18 6 7 mph 1024.3mb 39f -
10:12 6 7 mph 1024.4mb 40f 34f
10:06 6
mph
1024.4mb 40f 34f
10:00 6
mph
1024.5mb 40f 33f
9:54 5 6 mph 1024.5mb 40f 33f
9:48 6
mph
1024.4mb - -
9:42 5 6 mph 1024.4mb - -
9:36 3 5 mph 1024.4mb - -
9:30 2 3 mph 1024.3mb 40f 34f
9:24 2
mph
1024.4mb 40f 34f
9:18 2 3 mph 1024.4mb 40f 35f
9:12 2 3 mph 1024.3mb 40f 35f
9:06 3
mph
1024.2mb 40f 34f
9:00 3 5 mph 1024.1mb 41f 34f
8:54 3 5 mph 1024.1mb 41f 35f
8:48 3 5 mph 1024mb 41f -
8:42 3 5 mph 1024mb 40f 34f
8:36 5 6 mph 1024mb 40f 35f
8:30 2 5 mph 1023.9mb 41f 35f
8:24 3 5 mph 1023.9mb 41f 35f
8:18 3 7 mph 1023.9mb 40f 35f
8:12 5 6 mph 1023.9mb 41f 35f
8:06 5 7 mph 1023.9mb 40f 35f
8:00 6 7 mph 1023.9mb 42f 35f
7:54 7 9 mph 1024mb 42f 37f
7:48 7 9 mph 1023.9mb 42f 37f
7:42 7 8 mph 1024mb 42f 37f
7:36 7 9 mph 1024mb 42f 37f
7:30 8 10 mph 1024mb 42f 37f
7:24 9 10 mph 1023.9mb 43f 37f
7:18 7 8 mph 1023.9mb - -
7:12 7 9 mph 1023.9mb 43f 37f
7:06 7 8 mph 1024mb 43f 37f
7:00 7 9 mph 1024.1mb 43f 38f
6:54 7 9 mph 1024.1mb 43f 38f
6:48 8 11 mph 1024.1mb 43f -
6:42 10 14 mph 1024mb 43f 38f
6:36 13 14 mph 1023.9mb 43f 38f
6:30 11 13 mph 1023.9mb 43f 38f
6:24 10 15 mph 1023.8mb 43f 39f
6:18 14 16 mph 1023.7mb 44f -
6:12 14 15 mph 1023.7mb 44f 39f
6:06 11 14 mph 1023.8mb 43f 40f
6:00 13 16 mph 1023.8mb 43f 39f
5:54 14 16 mph 1023.7mb 44f 40f
5:48 14 16 mph 1023.7mb 44f 40f
5:42 14 17 mph 1023.7mb 44f 40f
5:36 14 16 mph 1023.8mb 44f 40f
5:30 14 15 mph 1023.9mb 44f 40f
5:24 14 15 mph 1024.1mb 44f 40f
5:18 13 15 mph 1024.1mb 44f 41f
5:12 13 15 mph 1024.2mb 44f 41f
5:06 14 17 mph 1024.2mb 44f 41f
5:00 15 20 mph 1024.2mb 44f 41f
4:54 16 20 mph 1024.1mb 44f 41f
4:48 17 20 mph 1024.1mb 44f 41f
4:42 17 18 mph 1024.1mb 45f 42f
4:36 16 18 mph 1024.1mb 44f 42f
4:30 14 17 mph 1024.1mb 44f 42f
4:24 15 16 mph 1024.1mb 44f 43f
4:18 14 15 mph 1024.1mb 44f -
4:12 14 15 mph 1024.2mb 44f 43f
4:06 11 13 mph 1024.4mb 44f 43f
4:00 11 14 mph 1024.5mb 44f 43f
3:54 11 14 mph 1024.5mb 44f 44f
3:48 13 14 mph 1024.6mb 44f -
3:42 11 14 mph 1024.6mb 44f 44f
3:36 11 13 mph 1024.7mb 44f 44f
3:30 9 11 mph 1024.7mb 44f 44f
3:24 8 10 mph 1024.7mb 44f 44f
3:18 9 13 mph 1024.7mb 45f 44f
3:12 11 13 mph 1024.7mb 45f 44f
3:06 10 13 mph 1024.7mb 45f 44f
3:00 11 13 mph 1024.6mb 45f 44f
2:54 13 14 mph 1024.6mb 45f 45f
2:48 13 14 mph 1024.6mb 45f 45f
2:42 14
mph
1024.6mb 45f 44f
2:36 14 15 mph 1024.7mb 45f 44f
2:30 13 14 mph 1024.7mb 45f 44f
2:24 13 14 mph 1024.7mb 46f 44f
2:18 13 14 mph 1024.8mb 45f 44f
2:12 13 14 mph 1024.8mb 45f 44f
2:06 13 15 mph 1024.8mb 45f 44f
2:00 14 15 mph 1024.8mb 45f 43f
1:54 13 15 mph 1024.9mb 45f 43f
1:48 11 14 mph 1025mb 45f 43f
1:42 13 14 mph 1025.1mb 46f 43f
1:36 14 15 mph 1025.2mb 45f 43f
1:30 13 15 mph 1025.3mb 45f 43f
1:24 13 14 mph 1025.4mb 45f 43f
1:18 13 15 mph 1025.4mb 45f 42f
1:12 14 15 mph 1025.5mb 45f 42f
1:06 13 14 mph 1025.5mb 45f 42f
1:00 13 15 mph 1025.6mb 45f 42f
12:54 14 15 mph 1025.6mb 45f 41f
12:48 11 14 mph 1025.8mb - -
12:42 13 14 mph 1025.8mb 45f 41f
12:36 11 13 mph 1026mb 45f 41f
12:30 10 11 mph 1026.2mb 45f 41f
12:24 10 11 mph 1026.3mb 44f 41f
12:18 9 10 mph 1026.4mb 45f 41f
12:12 10 11 mph 1026.5mb 44f 40f
12:06 9 11 mph 1026.5mb 44f 40f
12:00 10 11 mph 1026.5mb 44f 40f
11:54 11 14 mph 1026.5mb 44f 39f
11:48 10 13 mph 1026.5mb 44f 39f
11:42 10 11 mph 1026.5mb 44f 39f
11:36 10 13 mph 1026.4mb 44f 39f
11:30 11 13 mph 1026.5mb 44f 38f
11:24 13 14 mph 1026.5mb 44f 38f
11:18 14 15 mph 1026.7mb - -
11:12 11 14 mph 1026.8mb 44f 38f
11:06 11 13 mph 1026.8mb 44f 38f
11:00 11 13 mph 1027mb 43f 37f
10:54 11 14 mph 1027.1mb 43f 37f
10:48 11 14 mph 1027.2mb 42f 37f
10:42 11 14 mph 1027.2mb 42f 37f
10:36 11 14 mph 1027.3mb 42f 37f
10:30 11 14 mph 1027.4mb 41f 37f
10:24 11 14 mph 1027.4mb 41f 36f
10:18 13 15 mph 1027.3mb 41f 36f
10:12 13 14 mph 1027.4mb 41f 36f
10:06 11 14 mph 1027.4mb 41f 35f
10:00 14
mph
1027.5mb 40f 35f
9:54 13 14 mph 1027.6mb 39f 35f
9:48 11 14 mph 1027.7mb 40f -
9:42 10 14 mph 1027.8mb 40f 35f
9:36 9 14 mph 1027.8mb 40f 35f
9:30 13 14 mph 1027.7mb 40f 35f
9:24 13 14 mph 1027.7mb 40f 35f
9:18 10 14 mph 1027.7mb - -
9:12 11 14 mph 1027.6mb 39f 35f
9:06 11 17 mph 1027.6mb 39f 34f
9:00 13 17 mph 1027.6mb 39f 35f
8:54 15 17 mph 1027.6mb 39f 35f
8:48 16 18 mph 1027.6mb 39f -
8:42 15 18 mph 1027.6mb 38f 35f
8:36 16 17 mph 1027.6mb 39f 34f
8:30 16 17 mph 1027.6mb 39f 34f
8:24 15 16 mph 1027.7mb 39f 34f
8:18 13 16 mph 1027.7mb 39f 34f
8:12 14 16 mph 1027.7mb 40f 33f
8:06 15 16 mph 1027.7mb 40f 33f
8:00 13 16 mph 1027.6mb 40f 34f
7:54 15 16 mph 1027.7mb 40f 33f
7:48 13 16 mph 1027.7mb 40f 34f
7:42 14 15 mph 1027.7mb 41f 34f
7:36 11 15 mph 1027.9mb 41f 34f
7:30 11 14 mph 1027.8mb 41f 34f
7:24 13 15 mph 1027.9mb 41f 34f
7:18 15 17 mph 1027.7mb 41f 34f
7:12 16 18 mph 1027.7mb 41f 34f
7:06 15 20 mph 1027.6mb 42f 34f
7:00 17 20 mph 1027.6mb 42f 34f
6:54 17 20 mph 1027.5mb 42f 34f
6:48 16 20 mph 1027.5mb 42f 34f
6:42 18 20 mph 1027.4mb 42f 34f
6:36 15 17 mph 1027.7mb 42f 34f
6:30 15 18 mph 1027.7mb 42f 34f
6:24 15 17 mph 1027.7mb 42f 34f
6:18 14 16 mph 1027.8mb 42f 34f
6:12 15 17 mph 1027.9mb 40f 34f
6:06 15 18 mph 1027.9mb 42f 34f
6:00 16 17 mph 1028mb 43f 34f
5:54 15 17 mph 1027.9mb 42f 34f
5:48 14 16 mph 1028mb - -
5:42 14 15 mph 1028.1mb 43f 34f
5:36 13 15 mph 1028.2mb 43f 34f
5:30 14 15 mph 1028.2mb 42f 34f
5:24 14
mph
1028.4mb 42f 34f
5:18 13 14 mph 1028.5mb 43f -
5:12 11 14 mph 1028.6mb 42f 34f
5:06 11 15 mph 1028.5mb 44f 34f
5:00 13 16 mph 1028.5mb 42f 35f
4:54 11 15 mph 1028.7mb 42f 35f
4:48 11 13 mph 1028.6mb 43f 35f
4:42 9 11 mph 1028.7mb 42f 34f
4:36 10 13 mph 1028.7mb 43f 34f
4:30 10 13 mph 1028.7mb 42f 34f
4:24 9 14 mph 1028.7mb 43f 34f
4:18 11 15 mph 1028.5mb - -
4:12 14 16 mph 1028.5mb 43f 34f
4:06 13 17 mph 1028.6mb 44f 34f
4:00 15 18 mph 1028.7mb 44f 35f
3:54 16 17 mph 1028.8mb 45f 35f
3:48 15 17 mph 1029mb 44f 35f
3:42 15 18 mph 1029mb 45f 35f
3:36 16 17 mph 1029.1mb 44f 35f
3:30 15 17 mph 1029.2mb 45f 35f
3:24 15 18 mph 1029mb 45f 35f
3:18 16 20 mph 1029mb 46f 35f
3:12 15 18 mph 1028.9mb 45f 35f
3:06 16 18 mph 1028.7mb 46f 35f
3:00 14 16 mph 1028.8mb 46f 35f
2:54 15 18 mph 1028.8mb 46f 35f
2:48 15 18 mph 1028.8mb - -
2:42 15 16 mph 1028.9mb 45f 35f
2:36 14 17 mph 1029mb 46f 36f
2:30 15 16 mph 1028.8mb 46f 36f
2:24 15 17 mph 1028.8mb 46f 36f
2:18 15 17 mph 1028.7mb - -
2:12 15 18 mph 1028.7mb 46f 36f
2:06 16 20 mph 1028.4mb 45f 36f
2:00 17 20 mph 1028.2mb 45f 36f
1:54 17 20 mph 1028.2mb 45f 36f
1:48 17 20 mph 1028.2mb 45f 36f
1:42 16 18 mph 1028.3mb 45f 36f
1:36 14 15 mph 1028.5mb 45f 35f
1:30 13 14 mph 1028.7mb 45f 35f
1:24 10 13 mph 1028.8mb 44f 34f
1:18 11 14 mph 1028.9mb - -
1:12 14 17 mph 1028.9mb 44f 36f
1:06 14 16 mph 1029mb 44f 36f
1:00 13 15 mph 1029.2mb 44f 36f
12:54 14 15 mph 1029mb 44f 36f
12:48 14 16 mph 1029.1mb 44f 36f
12:42 14 15 mph 1029mb 43f 36f
12:36 13 15 mph 1029.1mb 43f 36f
12:30 11 14 mph 1029.3mb 43f 36f
12:24 11 14 mph 1029.3mb 43f 37f
12:18 14 15 mph 1029.1mb - -
12:12 14 15 mph 1029.1mb 42f 36f
12:06 11 14 mph 1029.1mb 42f 36f
12:00 13 14 mph 1029mb 42f 36f
Sex 01/13 11:54 11 15 mph 1029.1mb 42f 37f
11:48 13 14 mph 1029mb - -
11:42 8 10 mph 1029.1mb 41f 36f
11:36 8 9 mph 1029.1mb 41f 36f
11:30 8 10 mph 1029.1mb 41f 36f
11:24 9 10 mph 1029.1mb 41f 36f
11:18 8 10 mph 1029.2mb 41f 35f
11:12 10 11 mph 1029.3mb 40f 35f
11:06 10 11 mph 1029.2mb 40f 35f
11:00 9 10 mph 1029.2mb 40f 35f
10:54 9 10 mph 1029.2mb 40f 35f
10:48 10 13 mph - - -
10:42 10 13 mph 1029mb 40f -
10:36 10 11 mph 1029.1mb 40f -
10:30 10 11 mph 1029.1mb 39f 35f
10:24 9 13 mph 1029.1mb 39f 35f
10:18 10 11 mph 1029mb 39f 35f
10:12 9 11 mph 1029.2mb 39f 35f
10:06 9 11 mph 1029.2mb 39f 35f
10:00 10 13 mph 1029.2mb 39f 35f
9:54 10 13 mph 1029.2mb 39f 35f
9:48 9 11 mph 1029.3mb 39f -
9:42 10 14 mph 1029.3mb 40f 35f
9:36 11 13 mph 1029.2mb 40f 35f
9:30 9 11 mph 1029.3mb 39f 35f
9:24 10 13 mph 1029.3mb 40f 35f
9:18 11 14 mph 1029.4mb 40f -
9:12 13 15 mph 1029.3mb 40f 35f
9:06 13 14 mph 1029.4mb 40f 35f
9:00 13 14 mph 1029.6mb 40f 35f
8:54 11 14 mph 1029.6mb 40f 35f
8:48 13 14 mph 1029.7mb 40f 35f
8:42 11 14 mph 1029.8mb 40f 35f
8:36 10 14 mph 1029.8mb 40f 35f
8:30 10 14 mph 1029.7mb 40f 35f
8:24 11 15 mph 1029.8mb 40f 35f
8:18 11 13 mph 1029.6mb 39f 35f
8:12 10 13 mph 1029.5mb 37f 35f
8:06 9 13 mph 1029.4mb 35f 35f
8:00 9 11 mph 1029.4mb 35f 35f
7:54 10 13 mph 1029.4mb 35f 36f
7:48 10 13 mph 1029.5mb 35f 35f
7:42 9 10 mph 1029.5mb 35f 35f
7:36 6 8 mph 1029.6mb 35f 35f
7:30 6 9 mph 1029.5mb 37f 35f
7:24 7 9 mph 1029.4mb 39f 35f
7:18 6 7 mph 1029.5mb 39f 35f
7:12 6 8 mph 1029.4mb 40f 35f
7:06 7 11 mph 1029.3mb 40f 35f
7:00 10 13 mph 1029.1mb 42f -
6:54 10 14 mph 1029.1mb 40f -
6:48 11 14 mph 1029mb - -
6:42 11 15 mph 1029mb 42f 36f
6:36 13 15 mph 1028.9mb 42f 36f
6:30 13 15 mph 1029mb 42f 35f
6:24 13 15 mph 1029mb 42f 36f
6:18 13 14 mph 1029mb 42f 35f
6:12 13 14 mph 1029.2mb 43f 36f
6:06 13 14 mph 1029.2mb 43f 36f
6:00 13 15 mph 1029.2mb 43f 36f
5:54 10 11 mph 1029.3mb 43f 36f
5:48 8 9 mph 1029.5mb 43f 37f
5:42 8 9 mph 1029.5mb 43f 37f
5:36 8 9 mph 1029.3mb 43f 37f
5:30 6 7 mph 1029.4mb 43f 37f
5:24 5 8 mph 1029.4mb 43f 37f
5:18 6 13 mph 1029.3mb 43f -
5:12 11 15 mph 1029.1mb 43f 38f
5:06 14 18 mph 1028.9mb 43f 38f
5:00 16 18 mph 1028.7mb 43f 38f
4:54 16 18 mph 1028.7mb 43f 38f
4:48 13 15 mph 1028.7mb 43f -
4:42 11 15 mph 1028.7mb 44f 38f
4:36 14 17 mph 1028.6mb 44f 38f
4:30 16 20 mph 1028.4mb 44f 39f
4:24 16 18 mph 1028.4mb 44f 39f
4:18 15 17 mph 1028.6mb 44f -
4:12 14 17 mph 1028.8mb 44f 39f
4:06 14 17 mph 1028.8mb 44f 38f
4:00 15 18 mph 1028.8mb 44f 38f
3:54 16 18 mph 1028.8mb 44f 38f
3:48 15 17 mph 1028.9mb 44f 38f
3:42 14 17 mph 1029mb 44f 38f
3:36 13 15 mph 1029.2mb 44f 38f
3:30 11 13 mph 1029.3mb 44f 38f
3:24 10 11 mph 1029.3mb 43f 38f
3:18 8 11 mph 1029.4mb 44f 38f
3:12 8 10 mph 1029.5mb 43f 38f
3:06 9 11 mph 1029.4mb 44f 38f
3:00 8 10 mph 1029.3mb 44f 38f
2:54 8 11 mph 1029.2mb 44f 38f
2:48 8 10 mph 1029.2mb 44f -
2:42 9 11 mph 1029.1mb 44f 38f
2:36 10 14 mph 1028.9mb 44f 38f
2:30 13 14 mph 1028.8mb 44f 38f
2:24 13 14 mph 1028.8mb 44f 38f
2:18 13 14 mph 1028.8mb 45f 38f
2:12 13 14 mph 1028.9mb 45f 38f
2:06 13 14 mph 1028.9mb 45f 38f
2:00 13 15 mph 1028.9mb 45f 38f
1:54 14 15 mph 1028.8mb 45f 38f
1:48 13 16 mph 1028.8mb 45f -
1:42 14 16 mph 1028.9mb 45f 38f
1:36 14 17 mph 1028.9mb 46f 38f
1:30 14 16 mph 1028.8mb 45f 38f
1:24 14 16 mph 1028.9mb 45f 38f
1:18 13 14 mph 1029mb 45f -
1:12 11 14 mph 1029.1mb 46f 38f
1:06 11 15 mph 1029.1mb 46f 38f
1:00 13 15 mph 1029.1mb 46f 38f
12:54 14 17 mph 1029.1mb 46f 38f
12:48 14 15 mph 1029.1mb 46f 38f
12:42 13 14 mph 1029.3mb 45f 37f
12:36 11 14 mph 1029.4mb 45f 37f
12:30 11 14 mph 1029.5mb 45f 37f
12:24 11 13 mph 1029.6mb 45f 37f
12:18 11 14 mph 1029.7mb 45f -
12:12 11 14 mph 1029.8mb 45f 36f
12:06 11 15 mph 1029.9mb 45f 36f
12:00 11 15 mph 1029.9mb 45f 37f
11:54 13 15 mph 1029.9mb 45f 37f
11:48 11 14 mph 1030mb 45f 37f
11:42 10 14 mph 1030.1mb 44f 36f
11:36 9 14 mph 1030.3mb 44f 36f
11:30 10 14 mph 1030.3mb 44f 36f
11:24 10 14 mph 1030.3mb 44f 35f
11:18 11 13 mph 1030.2mb 44f -
11:12 10 11 mph 1030.2mb 44f 35f
11:06 9 13 mph 1030.3mb 44f 34f
11:00 11 14 mph 1030.2mb 44f 34f
10:54 10 11 mph 1030.2mb 44f 34f
10:48 9 13 mph 1030.2mb 44f 34f
10:42 10 11 mph 1030.2mb 44f 34f
10:36 9 11 mph 1030.2mb 44f 33f
10:30 9 11 mph 1030.2mb 44f 33f
10:24 9 11 mph 1030.1mb 44f 33f
10:18 10 13 mph 1030mb - -
10:12 10 13 mph 1029.8mb 44f 33f
10:06 9 14 mph 1029.7mb 44f 33f
10:00 11 13 mph 1029.6mb 43f 33f
9:54 11 15 mph 1029.6mb 43f 33f
9:48 13 16 mph 1029.5mb - -
9:42 11 15 mph 1029.5mb 42f 33f
9:36 13 15 mph 1029.5mb 42f 33f
9:30 11 13 mph 1029.5mb 42f 32f
9:24 11 13 mph 1029.5mb 41f 32f
9:18 10 13 mph 1029.6mb - -
9:12 10 11 mph 1029.5mb 41f 32f
9:06 9 13 mph 1029.5mb 40f 32f
9:00 10 13 mph 1029.5mb 40f 32f
8:54 9 11 mph 1029.4mb 40f 32f
8:48 11 13 mph 1029.3mb 40f 32f
8:42 11 14 mph 1029.3mb 40f 32f
8:36 11 14 mph 1029.2mb 40f 32f
8:30 11 14 mph 1029.1mb 40f 32f
8:24 13 15 mph 1029mb 40f 31f
8:18 13 15 mph 1028.9mb - -
8:12 13 14 mph 1028.9mb 40f 32f
8:06 11 13 mph 1029mb 40f 32f
8:00 11 13 mph 1028.9mb 40f 32f
7:54 10 13 mph 1029.2mb 40f 32f
7:48 8 10 mph 1029.4mb 40f 32f
7:42 9 10 mph 1029.5mb 40f 32f
7:36 10 11 mph 1029.3mb 40f 32f
7:30 9 11 mph 1029.3mb 40f 32f
7:24 10 11 mph 1029.2mb 41f 32f
7:18 10 11 mph 1029.2mb 40f -
7:12 9 11 mph 1029.1mb 40f 32f
7:06 9 11 mph 1028.9mb 40f 32f
7:00 9 11 mph 1028.9mb 40f 32f
6:54 10 13 mph 1029mb 40f 32f
6:48 11 14 mph 1028.9mb 40f 32f
6:42 11 15 mph 1028.7mb 40f 32f
6:36 11 14 mph 1028.6mb 40f 32f
6:30 11 14 mph 1028.5mb 40f 32f
6:24 11 14 mph 1028.4mb 41f 32f
6:18 11 14 mph 1028.4mb - -
6:12 13 14 mph 1028.5mb 41f 31f
6:06 11 13 mph 1028.4mb 41f 32f
6:00 11 13 mph 1028.5mb 41f 32f
5:54 10 11 mph 1028.6mb 41f 32f
5:48 10 11 mph 1028.7mb 41f -
5:42 9 14 mph 1028.6mb 41f 33f
5:36 11 14 mph 1028.6mb 42f 33f
5:30 9 11 mph 1028.6mb 42f 33f
5:24 10 13 mph 1028.7mb 42f 33f
5:18 11 14 mph 1028.6mb 42f 32f
5:12 13 15 mph 1028.5mb 41f 32f
5:06 13 16 mph 1028.4mb 42f 33f
5:00 14 15 mph 1028.4mb 42f 33f
4:54 13 15 mph 1028.6mb 42f 33f
4:48 13 15 mph 1028.5mb 42f -
4:42 11 14 mph 1028.6mb 42f 33f
4:36 11 13 mph 1028.5mb 42f 33f
4:30 11 13 mph 1028.4mb 42f 33f
4:24 9 11 mph 1028.5mb 42f 33f
4:18 8 10 mph 1028.6mb 42f 33f
4:12 8 11 mph 1028.7mb 43f 33f
4:06 9 11 mph 1028.7mb 42f 33f
4:00 9 11 mph 1028.7mb 44f 33f
3:54 10 11 mph 1028.6mb 43f 33f
3:48 7 8 mph - - -
3:42 7 10 mph 1028.5mb 42f 32f
3:36 8 10 mph 1028.4mb 42f 32f
3:30 9 10 mph 1028.3mb 42f 33f
3:24 9 10 mph 1028.4mb 43f 33f
3:18 9 10 mph 1028.4mb - -
3:12 10
mph
1028.3mb 46f 33f
3:06 9 10 mph 1028.2mb 44f 33f
3:00 9 13 mph 1028.1mb 45f 33f
2:54 10 13 mph 1028.1mb 44f 34f
2:48 9 11 mph 1028.1mb 45f 33f
2:42 11 14 mph 1027.9mb 45f 33f
2:36 13 15 mph 1027.9mb 44f 33f
2:30 14 15 mph 1027.8mb 46f 33f
2:24 13 15 mph 1027.8mb 46f 33f
2:18 13 14 mph 1027.8mb 46f -
2:12 11 14 mph 1027.8mb 46f 34f
2:06 8 10 mph 1027.8mb 46f 34f
2:00 6 8 mph 1027.8mb 46f 34f
1:54 5 8 mph 1027.8mb 46f 34f
1:48 7 8 mph 1027.7mb 46f 34f
1:42 7 8 mph 1027.6mb 46f 34f
1:36 6 8 mph 1027.5mb 46f 34f
1:30 7 9 mph 1027.5mb 46f 33f
1:24 8 9 mph 1027.4mb 46f 33f
1:18 7 8 mph 1027.3mb 46f 34f
1:12 6 8 mph 1027.4mb 45f 33f
1:06 7 9 mph 1027.4mb 45f 33f
1:00 7 9 mph 1027.1mb 45f 33f
12:54 8 10 mph 1027mb 45f 33f
12:48 9 10 mph 1027mb 45f 33f
12:42 8 10 mph 1027mb 45f 33f
12:36 8 9 mph 1027mb 45f 33f
12:30 8 9 mph 1027.1mb 45f 34f
12:24 9 10 mph 1027.1mb 44f 34f
12:18 8 10 mph 1027mb 44f 34f
12:12 9 10 mph 1027mb 43f 34f
12:06 9 10 mph 1027mb 43f 34f
12:00 9 10 mph 1027.2mb 43f 34f
Qui 01/12 11:54 9 10 mph 1027.1mb 43f 34f
11:48 8 9 mph 1027.3mb 43f -
11:42 6 8 mph 1027.4mb 43f 35f
11:36 6 7 mph 1027.5mb 43f 34f
11:30 6 8 mph 1027.6mb 43f 34f
11:24 6 7 mph 1027.8mb 42f 34f
11:18 2 5 mph 1027.6mb 42f 34f
11:12 3 6 mph 1027.4mb 42f 34f
11:06 5 6 mph 1027.4mb 42f 33f
11:00 5 7 mph 1027.2mb 42f 33f
10:54 6 8 mph 1027.1mb 42f 33f
10:48 6 8 mph 1027.1mb 41f -
10:42 7 8 mph 1027.2mb 41f 33f
10:36 7 8 mph 1027.2mb 41f 33f
10:30  -  mph 1027.2mb 41f 33f
10:24  -  mph 1027.1mb 41f 33f
10:18  -  mph 1027mb 41f -
10:12  -  mph 1026.8mb 41f 32f
10:06  -  mph 1026.8mb 40f 32f
10:00  -  mph 1026.9mb 40f 33f
9:54  -  mph 1026.8mb 40f 33f
9:48  -  mph 1026.8mb - -
9:42  -  mph 1026.8mb 40f 32f
9:36  -  mph 1026.8mb 40f 32f
9:30  -  mph 1026.9mb 39f 33f
9:24  -  mph 1026.8mb 39f 33f
9:18  -  mph 1026.8mb 39f 33f
9:12  -  mph 1026.8mb 39f 33f
9:06  -  mph 1026.8mb 39f 32f
9:00  -  mph 1026.8mb 39f 33f
8:54  -  mph 1026.8mb 40f 33f
8:48 5 6 mph 1026.8mb 40f 33f
8:42 2 3 mph 1026.6mb 40f 32f
8:36 2 3 mph 1026.5mb 39f 32f
8:30 2 5 mph 1026.4mb 39f 32f
8:24 3 5 mph 1026.4mb 40f 32f
8:18 5
mph
1026.3mb 39f 32f
8:12 3 5 mph 1026.3mb 39f 32f
8:06 5 6 mph 1026.3mb 38f 32f
8:00 6 7 mph 1026.2mb 39f 32f
7:54 5 7 mph 1026mb 41f 32f
7:48 7 8 mph 1026.2mb 39f -
7:36 3 5 mph 1026mb 38f 33f
7:30 5
mph
1026mb 38f 33f
7:24 5 6 mph 1026mb 38f 33f
7:18 6 7 mph 1025.9mb 39f 34f
7:12 6 8 mph 1025.8mb 38f 35f
7:06 7 8 mph 1025.7mb 37f 35f
7:00  -  mph 1025.7mb 38f 35f
6:54  -  mph 1025.4mb 41f 35f
6:48  -  mph 1025.3mb 40f -
6:42  -  mph 1025.2mb 41f 36f
6:36  -  mph 1025.2mb 42f 37f
6:30  -  mph 1025.4mb 42f 37f
6:24  -  mph 1025.4mb 42f 37f
6:18 6 7 mph 1025.3mb 42f -
6:12 6 8 mph 1025.3mb 42f 37f
6:06 6 7 mph 1025.2mb 42f 37f
6:00 6
mph
1025.2mb 42f 38f
5:54 3 6 mph 1024.9mb 42f 37f
5:48 6
mph
1024.9mb 42f 36f
5:42 7 8 mph 1025mb 42f 36f
5:36 8
mph
1025mb 42f 36f
5:30 7
mph
1025mb 42f 36f
5:24 7 9 mph 1024.9mb 42f 37f
5:18  -  mph 1025mb - -
5:12  -  mph 1025mb 42f 40f
5:06  -  mph 1024.8mb 42f 38f
5:00  -  mph 1024.7mb 42f 38f
4:54  -  mph 1024.6mb 42f 39f
4:48 6 7 mph 1024.6mb 42f 40f
4:42 6 8 mph 1024.6mb 42f 40f
4:36 6 7 mph 1024.5mb 43f 41f
4:30 6 7 mph 1024.4mb 43f 41f
4:24 7 8 mph 1024.3mb 43f 41f
4:18 7 8 mph 1024.3mb 43f 41f
4:12 7 8 mph 1024.2mb 43f 41f
4:06 6 8 mph 1024.2mb 43f 41f
4:00 6 7 mph 1024.2mb 43f 42f
3:54 6 7 mph 1024.2mb 43f 42f
3:48 7 8 mph 1024.2mb 43f -
3:42 6
mph
1024.1mb 43f 42f
3:36 5 7 mph 1024.2mb 43f 42f
3:30 7
mph
1024mb 43f 42f